Time;durP1;ratioP1;P1;durP2;ratioP2;P2;SDS_P1;SDS_P2;PMS_P1;PMS_P2;Temp;Humidity;BMP_temperature;BMP_pressure;BME280_temperature;BME280_humidity;BME280_pressure;Samples;Min_cycle;Max_cycle;Signal;HPM_P1;HPM_P2
2023/01/25 00:00:21;;;;;;;27.75;17.08;;;2.00;99.90;;;1.10;100.00;98833.22;4998894;28;20037;-47
2023/01/25 00:02:47;;;;;;;27.88;17.02;;;2.10;99.90;;;1.09;100.00;98831.44;4999662;28;20056;-46
2023/01/25 00:05:12;;;;;;;27.35;16.55;;;2.10;99.90;;;1.07;100.00;98826.19;5006191;28;20041;-47
2023/01/25 00:07:38;;;;;;;27.50;16.23;;;2.10;99.90;;;1.09;100.00;98821.03;5004977;28;20049;-49
2023/01/25 00:10:04;;;;;;;25.88;16.13;;;2.10;99.90;;;1.13;100.00;98821.16;5001359;28;20507;-49
2023/01/25 00:12:30;;;;;;;33.83;18.05;;;2.10;99.90;;;1.12;100.00;98816.78;4987220;28;20516;-46
2023/01/25 00:14:55;;;;;;;29.98;17.05;;;2.10;99.90;;;1.16;100.00;98802.16;5000905;28;20029;-47
2023/01/25 00:17:22;;;;;;;30.00;16.63;;;2.10;99.90;;;1.14;100.00;98801.25;5008253;28;20048;-46
2023/01/25 00:19:47;;;;;;;27.48;16.25;;;2.10;99.90;;;1.14;100.00;98806.44;5000551;28;20383;-45
2023/01/25 00:22:13;;;;;;;24.33;14.52;;;2.10;99.90;;;1.15;100.00;98803.00;5005587;28;20044;-45
2023/01/25 00:24:39;;;;;;;28.55;15.68;;;2.10;99.90;;;1.18;100.00;98797.00;4998443;28;20029;-46
2023/01/25 00:27:04;;;;;;;27.38;15.82;;;2.10;99.90;;;1.21;100.00;98804.88;5038848;23;20057;-36
2023/01/25 00:29:30;;;;;;;30.85;16.40;;;2.10;99.90;;;1.18;100.00;98797.84;5041697;28;20101;-36
2023/01/25 00:31:56;;;;;;;27.90;16.08;;;2.20;99.90;;;1.20;100.00;98800.50;5036079;28;20867;-36
2023/01/25 00:34:24;;;;;;;26.20;15.20;;;2.10;99.90;;;1.19;100.00;98797.03;5037620;28;20024;-36
2023/01/25 00:37:01;;;;;;;26.48;16.02;;;2.10;99.90;;;1.11;100.00;98789.06;5015603;28;20025;-36
2023/01/25 00:39:27;;;;;;;24.45;14.68;;;2.10;99.90;;;1.16;100.00;98804.75;5020979;28;20518;-36
2023/01/25 00:41:54;;;;;;;27.75;16.13;;;2.10;99.90;;;1.15;100.00;98810.81;5025375;28;20032;-36
2023/01/25 00:44:20;;;;;;;27.80;16.15;;;2.10;99.90;;;1.14;100.00;98802.13;5023560;28;20201;-37
2023/01/25 00:46:46;;;;;;;25.10;15.50;;;2.10;99.90;;;1.17;100.00;98810.81;5024420;28;20520;-35
2023/01/25 00:49:26;;;;;;;30.65;17.00;;;2.10;99.90;;;1.18;100.00;98803.06;5017357;28;20082;-36
2023/01/25 00:51:54;;;;;;;27.20;16.15;;;2.10;99.90;;;1.15;100.00;98787.41;5017719;28;20034;-36
2023/01/25 00:54:21;;;;;;;27.13;16.05;;;2.10;99.90;;;1.23;100.00;98791.06;5038891;28;20535;-36
2023/01/25 00:56:47;;;;;;;29.48;16.58;;;2.10;99.90;;;1.07;100.00;98762.97;5036606;28;20032;-37
2023/01/25 00:59:14;;;;;;;27.92;16.23;;;2.10;99.90;;;1.05;100.00;98765.53;5042966;28;20032;-37
2023/01/25 01:01:40;;;;;;;27.30;15.73;;;2.20;99.90;;;1.18;100.00;98790.06;5037499;28;20593;-37
2023/01/25 01:04:06;;;;;;;24.95;15.98;;;2.20;99.90;;;1.19;100.00;98778.84;5035225;28;20324;-37
2023/01/25 01:06:35;;;;;;;29.65;16.30;;;2.10;99.90;;;1.16;100.00;98783.09;5040026;28;20558;-37
2023/01/25 01:09:01;;;;;;;32.67;16.92;;;2.10;99.90;;;1.16;100.00;98777.91;5038547;28;21430;-37
2023/01/25 01:11:27;;;;;;;27.65;16.77;;;2.10;99.90;;;1.17;100.00;98785.72;5040260;28;20053;-37
2023/01/25 01:13:55;;;;;;;26.40;15.65;;;2.10;99.90;;;1.00;100.00;98755.88;5044481;28;21295;-37
2023/01/25 01:16:21;;;;;;;27.45;15.80;;;2.10;99.90;;;1.14;100.00;98777.84;5042017;28;20610;-37
2023/01/25 01:18:47;;;;;;;26.88;15.85;;;2.10;99.90;;;1.15;100.00;98771.81;5029481;28;20029;-37
2023/01/25 01:21:13;;;;;;;30.33;16.25;;;2.10;99.90;;;1.17;100.00;98780.53;5028532;28;20260;-37
2023/01/25 01:23:39;;;;;;;28.27;15.57;;;2.10;99.90;;;1.15;100.00;98782.22;5022733;28;20029;-37
2023/01/25 01:26:08;;;;;;;24.98;14.63;;;2.10;99.90;;;1.20;100.00;98783.19;5023352;28;20746;-37
2023/01/25 01:28:38;;;;;;;28.08;15.02;;;2.20;99.90;;;1.20;100.00;98785.78;5028289;28;20685;-37
2023/01/25 01:31:10;;;;;;;25.17;14.98;;;2.10;99.90;;;1.19;100.00;98784.03;5028292;28;20080;-37
2023/01/25 01:33:35;;;;;;;24.92;14.57;;;2.10;99.90;;;1.16;100.00;98783.09;5027874;28;20029;-37
2023/01/25 01:36:09;;;;;;;22.95;14.50;;;2.10;99.90;;;1.16;100.00;98776.16;5021355;28;20083;-34
2023/01/25 01:38:35;;;;;;;26.95;15.52;;;2.10;99.90;;;1.15;100.00;98782.22;5029668;28;20079;-34
2023/01/25 01:41:01;;;;;;;26.67;16.20;;;2.10;99.90;;;1.10;100.00;98784.69;5031433;28;20061;-34
2023/01/25 01:43:26;;;;;;;30.05;16.92;;;2.10;99.90;;;1.13;100.00;98783.88;5029424;28;20045;-34
2023/01/25 01:45:55;;;;;;;31.88;16.15;;;2.10;99.90;;;1.21;100.00;98763.28;5031732;28;20067;-37
2023/01/25 01:48:38;;;;;;;23.55;14.55;;;2.10;99.90;;;1.21;100.00;98774.56;5036374;28;20040;-37
2023/01/25 01:51:41;;;;;;;25.98;14.18;;;2.10;99.90;;;1.22;100.00;98780.63;5021479;28;20057;-37
2023/01/25 01:54:35;;;;;;;24.67;14.93;;;2.10;99.90;;;1.17;100.00;98780.53;5026848;28;21067;-34
2023/01/25 01:57:17;;;;;;;26.15;14.80;;;2.10;99.90;;;1.18;100.00;98784.88;5035704;28;20029;-36
2023/01/25 02:00:05;;;;;;;27.92;14.55;;;2.10;99.90;;;1.16;100.00;98791.75;5016414;28;20128;-36
2023/01/25 02:02:31;;;;;;;29.48;15.82;;;2.10;99.90;;;1.23;100.00;98788.44;5024999;28;20048;-36
2023/01/25 02:05:00;;;;;;;25.88;15.45;;;2.10;99.90;;;1.18;100.00;98781.41;5028714;28;20045;-36
2023/01/25 02:07:33;;;;;;;25.55;15.05;;;2.20;99.90;;;1.17;100.00;98780.53;5021656;28;20037;-36
2023/01/25 02:10:01;;;;;;;32.03;16.38;;;2.10;99.90;;;1.18;100.00;98777.06;5039941;28;20038;-36
2023/01/25 02:12:27;;;;;;;28.08;16.48;;;2.10;99.90;;;1.05;100.00;98759.47;5032731;28;20032;-36
2023/01/25 02:14:54;;;;;;;27.02;15.48;;;2.20;99.90;;;1.19;100.00;98777.97;5015681;28;20045;-36
2023/01/25 02:17:33;;;;;;;29.30;15.80;;;2.20;99.90;;;1.17;100.00;98782.22;5030407;28;20029;-36
2023/01/25 02:20:36;;;;;;;30.70;16.27;;;2.10;99.90;;;1.12;100.00;98772.63;5016066;28;20159;-36
2023/01/25 02:23:27;;;;;;;28.48;16.67;;;2.10;99.90;;;1.15;100.00;98777.03;5016934;28;20400;-36
2023/01/25 02:25:55;;;;;;;26.90;15.48;;;2.10;99.90;;;1.11;100.00;98773.47;5027764;28;20047;-37
2023/01/25 02:28:30;;;;;;;27.48;15.05;;;2.10;99.90;;;1.10;100.00;98773.44;5010743;28;20040;-36
2023/01/25 02:30:56;;;;;;;27.73;16.13;;;2.10;99.90;;;1.08;100.00;98770.81;5001841;28;20037;-36
2023/01/25 02:33:23;;;;;;;34.13;17.05;;;2.10;99.90;;;1.02;100.00;98762.84;5020577;28;20021;-36
2023/01/25 02:36:15;;;;;;;32.75;15.93;;;2.00;99.90;;;0.91;100.00;98730.56;5020416;28;20036;-36
2023/01/25 02:38:53;;;;;;;;;;;2.00;99.90;;;1.04;100.00;98761.19;5008268;28;20043;-36
2023/01/25 02:41:38;;;;;;;30.25;15.52;;;2.10;99.90;;;1.05;100.00;98757.72;5034248;28;19920;-37
2023/01/25 02:44:17;;;;;;;27.92;15.45;;;2.00;99.90;;;1.04;100.00;98752.50;5034663;28;20037;-36
2023/01/25 02:46:44;;;;;;;27.20;15.55;;;2.00;99.90;;;1.00;100.00;98753.28;5025424;28;20033;-36
2023/01/25 02:49:11;;;;;;;30.00;16.27;;;2.10;99.90;;;1.06;100.00;98761.19;5030155;28;20067;-37
2023/01/25 02:51:40;;;;;;;28.67;15.45;;;2.00;99.90;;;1.08;100.00;98767.34;5030964;28;20040;-36
2023/01/25 02:54:09;;;;;;;27.27;15.93;;;2.00;99.90;;;1.07;100.00;98758.63;5035140;28;20111;-37
2023/01/25 02:56:36;;;;;;;28.83;16.00;;;2.10;99.90;;;1.06;100.00;98761.19;5032605;28;20035;-37
2023/01/25 02:59:04;;;;;;;29.45;15.48;;;2.00;99.90;;;1.02;100.00;98752.47;5031333;28;20029;-37
2023/01/25 03:01:33;;;;;;;31.38;15.82;;;2.00;99.90;;;0.95;100.00;98740.16;5022695;28;20132;-37
2023/01/25 03:03:58;;;;;;;25.98;15.20;;;2.00;99.90;;;1.06;100.00;98745.59;5026126;28;20586;-36
2023/01/25 03:06:24;;;;;;;26.20;14.43;;;2.00;99.90;;;1.01;100.00;98742.06;5024326;28;20120;-37
2023/01/25 03:08:50;;;;;;;27.30;15.57;;;2.00;99.90;;;0.98;100.00;98737.66;5023286;28;20043;-36
2023/01/25 03:11:16;;;;;;;26.40;14.57;;;2.00;99.90;;;0.96;100.00;98728.94;5018518;28;20569;-37
2023/01/25 03:17:23;;;;;;;29.00;14.82;;;2.00;99.90;;;1.01;100.00;98716.94;5020658;28;20047;-36
2023/01/25 03:19:49;;;;;;;26.08;14.43;;;2.00;99.90;;;1.04;100.00;98721.31;5012811;28;20040;-37
2023/01/25 03:22:15;;;;;;;29.50;14.23;;;2.00;99.90;;;0.85;100.00;98681.09;5025675;28;20059;-36
2023/01/25 03:24:40;;;;;;;21.70;14.02;;;2.00;99.90;;;0.98;100.00;98695.22;5020303;28;20126;-36
2023/01/25 03:27:13;;;;;;;23.80;14.13;;;2.00;99.90;;;1.01;100.00;98710.88;5020647;28;20614;-37
2023/01/25 03:29:41;;;;;;;;;;;2.00;99.90;;;1.06;100.00;98710.13;5018386;28;20631;-37
2023/01/25 03:32:07;;;;;;;24.13;13.60;;;2.00;99.90;;;1.04;100.00;98711.81;5020123;28;20053;-37
2023/01/25 03:34:34;;;;;;;27.02;14.52;;;2.00;99.90;;;0.97;100.00;98709.03;5023936;28;20111;-36
2023/01/25 03:36:59;;;;;;;27.52;15.02;;;2.00;99.90;;;1.04;100.00;98710.94;5012661;28;20040;-37
2023/01/25 03:39:25;;;;;;;27.33;14.85;;;2.00;99.90;;;1.01;100.00;98705.69;5021531;28;20066;-36
2023/01/25 03:41:51;;;;;;;22.65;13.73;;;2.00;99.90;;;0.98;100.00;98711.66;5046787;23;20345;-51
2023/01/25 03:44:16;;;;;;;23.20;13.10;;;2.00;99.90;;;1.01;100.00;98718.69;5035914;28;20237;-48
2023/01/25 03:46:42;;;;;;;20.90;13.50;;;2.00;99.90;;;1.03;100.00;98714.38;5033972;28;20201;-48
2023/01/25 03:49:08;;;;;;;27.10;14.68;;;2.00;99.90;;;1.04;100.00;98710.94;5035554;28;20506;-50
2023/01/25 03:51:34;;;;;;;27.00;14.68;;;2.00;99.90;;;1.09;100.00;98714.50;5038564;28;20036;-48
2023/01/25 03:54:00;;;;;;;23.33;13.23;;;2.10;99.90;;;1.05;100.00;98710.97;5036758;28;20062;-49
2023/01/25 03:56:26;;;;;;;24.25;13.73;;;2.10;99.90;;;1.05;100.00;98702.31;5036977;28;21673;-47
2023/01/25 03:58:51;;;;;;;25.83;13.93;;;2.00;99.90;;;1.11;100.00;98702.41;5038744;28;20044;-50
2023/01/25 04:01:17;;;;;;;28.85;14.30;;;2.10;99.90;;;1.11;100.00;98703.31;5041042;28;20044;-46
2023/01/25 04:03:43;;;;;;;24.52;14.10;;;2.10;99.90;;;1.02;100.00;98704.81;5031613;28;20289;-47
2023/01/25 04:06:09;;;;;;;23.67;14.43;;;2.10;99.90;;;1.09;100.00;98706.72;5039012;28;20036;-50
2023/01/25 04:08:35;;;;;;;27.75;14.40;;;2.00;99.90;;;1.11;100.00;98708.53;5040763;28;20062;-49
2023/01/25 04:11:07;;;;;;;24.77;13.65;;;2.00;99.90;;;1.09;100.00;98704.13;5042437;28;20036;-49
2023/01/25 04:13:35;;;;;;;;;;;2.10;99.90;;;1.07;100.00;98705.81;5044134;28;20044;-46
2023/01/25 04:16:10;;;;;;;22.25;13.18;;;2.00;99.90;;;1.05;100.00;98700.56;5041153;28;19916;-45
2023/01/25 04:18:36;;;;;;;23.10;13.27;;;2.00;99.90;;;1.07;100.00;98705.81;5048327;28;20151;-49
2023/01/25 04:21:02;;;;;;;24.52;13.90;;;2.00;99.90;;;1.05;100.00;98707.50;5045754;28;20475;-48
2023/01/25 04:23:28;;;;;;;25.70;13.90;;;2.00;99.90;;;1.02;100.00;98712.63;5040939;28;20033;-50
2023/01/25 04:26:04;;;;;;;23.13;13.50;;;2.00;99.90;;;0.97;100.00;98703.84;5040131;28;20068;-50
2023/01/25 04:28:29;;;;;;;23.40;13.48;;;2.00;99.90;;;1.02;100.00;98707.41;5041996;28;20493;-49
2023/01/25 04:30:56;;;;;;;24.23;13.40;;;2.00;99.90;;;0.95;100.00;98698.59;5041299;28;20044;-48
2023/01/25 04:33:22;;;;;;;23.90;12.98;;;1.90;99.90;;;0.92;100.00;98703.75;5043991;28;20029;-49
2023/01/25 04:35:48;;;;;;;23.48;13.20;;;2.00;99.90;;;0.92;100.00;98701.16;5045498;28;20047;-49
2023/01/25 04:38:14;;;;;;;26.42;13.50;;;1.90;99.90;;;0.89;100.00;98686.38;5042776;28;20062;-49
2023/01/25 04:40:42;;;;;;;19.65;11.95;;;1.90;99.90;;;0.90;100.00;98693.31;5047858;28;20119;-46
2023/01/25 04:43:07;;;;;;;28.83;15.27;;;1.90;99.90;;;0.90;100.00;98676.88;5041890;28;20119;-50
2023/01/25 04:45:35;;;;;;;21.83;13.30;;;1.90;99.90;;;0.97;100.00;98693.44;5047411;28;20044;-48
2023/01/25 04:48:04;;;;;;;22.83;13.00;;;1.90;99.90;;;0.91;100.00;98683.81;5047706;28;20044;-51
2023/01/25 04:50:30;;;;;;;24.13;12.65;;;1.90;99.90;;;0.99;100.00;98689.16;5043633;28;20090;-49
2023/01/25 04:52:56;;;;;;;23.48;12.68;;;1.90;99.90;;;0.98;100.00;98687.44;5042226;28;20775;-51
2023/01/25 04:55:22;;;;;;;18.85;11.05;;;1.90;99.90;;;1.03;100.00;98691.00;5037155;28;20033;-50
2023/01/25 04:57:50;;;;;;;18.95;11.05;;;2.00;99.90;;;1.03;100.00;98693.59;5043682;28;20074;-49
2023/01/25 05:00:17;;;;;;;18.65;11.57;;;2.00;99.90;;;1.06;100.00;98694.53;5045668;28;20133;-50
2023/01/25 05:02:43;;;;;;;20.92;11.45;;;2.00;99.90;;;1.06;100.00;98691.94;5043844;28;20456;-50
2023/01/25 05:05:10;;;;;;;21.15;11.88;;;2.00;99.90;;;1.05;100.00;98678.91;5042596;28;20344;-49
2023/01/25 05:07:35;;;;;;;19.50;11.38;;;2.00;99.90;;;1.09;100.00;98686.78;5041170;28;20045;-51
2023/01/25 05:10:01;;;;;;;20.83;11.60;;;2.00;99.90;;;1.16;100.00;98686.94;5045100;28;20063;-49
2023/01/25 05:12:27;;;;;;;20.58;10.82;;;2.00;99.90;;;1.08;100.00;98684.19;5043049;28;20032;-45
2023/01/25 05:14:53;;;;;;;17.95;10.98;;;2.10;99.90;;;1.07;100.00;98687.63;5041737;28;20087;-48
2023/01/25 05:17:18;;;;;;;19.23;11.30;;;2.00;99.90;;;1.05;100.00;98686.72;5041770;28;20407;-46
2023/01/25 05:19:44;;;;;;;18.30;10.90;;;2.00;99.90;;;1.06;100.00;98683.25;5045136;28;20177;-46
2023/01/25 05:22:16;;;;;;;18.90;11.05;;;2.00;99.90;;;1.04;100.00;98688.44;5040191;28;20044;-47
2023/01/25 05:24:43;;;;;;;18.17;10.98;;;2.00;99.90;;;1.03;100.00;98685.81;5041826;28;20032;-46
2023/01/25 05:27:12;;;;;;;19.05;10.38;;;2.00;99.90;;;1.05;100.00;98690.19;5045805;28;20048;-49
2023/01/25 05:29:41;;;;;;;18.30;10.32;;;2.00;99.90;;;1.06;100.00;98672.84;5043104;28;20062;-48
2023/01/25 05:32:12;;;;;;;17.42;10.32;;;2.00;99.90;;;1.14;100.00;98676.50;5041333;28;20741;-45
2023/01/25 05:34:39;;;;;;;18.23;10.52;;;2.00;99.90;;;1.12;100.00;98681.66;5039919;28;20040;-48
2023/01/25 05:37:07;;;;;;;18.00;10.63;;;2.10;99.90;;;1.12;100.00;98679.06;5040527;28;20036;-47
2023/01/25 05:39:33;;;;;;;18.00;10.35;;;2.10;99.90;;;1.08;100.00;98674.66;5039710;28;20541;-48
2023/01/25 05:41:59;;;;;;;17.83;10.23;;;2.00;99.90;;;1.10;100.00;98677.28;5045386;28;20085;-48
2023/01/25 05:44:48;;;;;;;18.83;10.30;;;2.00;99.90;;;1.08;100.00;98677.25;5035417;28;20505;-47
2023/01/25 05:47:16;;;;;;;16.55;10.55;;;2.00;99.90;;;1.11;100.00;98673.84;5043823;28;20381;-47
2023/01/25 05:49:42;;;;;;;18.75;11.13;;;2.10;99.90;;;1.12;100.00;98675.59;5042510;28;20029;-49
2023/01/25 05:52:13;;;;;;;20.40;11.00;;;2.10;99.90;;;1.09;100.00;98675.53;5042958;28;20040;-45
2023/01/25 05:54:39;;;;;;;18.17;11.32;;;2.00;99.90;;;1.06;100.00;98673.75;5042245;28;20025;-46
2023/01/25 05:57:05;;;;;;;20.23;11.02;;;2.00;99.90;;;1.04;100.00;98671.94;5041513;28;20102;-48
2023/01/25 05:59:30;;;;;;;20.60;10.85;;;2.00;99.90;;;1.01;100.00;98664.13;5045107;28;20518;-48
2023/01/25 06:01:56;;;;;;;18.77;10.73;;;2.00;99.90;;;1.02;100.00;98666.72;5038429;28;20578;-45
2023/01/25 06:04:22;;;;;;;19.20;11.15;;;2.00;99.90;;;1.01;100.00;98664.13;5037266;28;20123;-46
2023/01/25 06:06:48;;;;;;;18.40;10.68;;;2.00;99.90;;;1.08;100.00;98660.81;5044683;28;20041;-47
2023/01/25 06:09:14;;;;;;;16.17;10.07;;;2.00;99.90;;;1.06;100.00;98665.97;5043940;28;20031;-47
2023/01/25 06:11:43;;;;;;;19.98;11.20;;;2.00;99.90;;;1.03;100.00;98657.22;5045521;28;20555;-46
2023/01/25 06:14:09;;;;;;;18.67;10.52;;;2.00;99.90;;;1.06;100.00;98667.66;5044203;28;20028;-47
2023/01/25 06:16:35;;;;;;;16.02;9.40;;;2.00;99.90;;;1.03;100.00;98658.09;5048263;28;20475;-49
2023/01/25 06:19:03;;;;;;;19.48;11.20;;;2.00;99.90;;;1.06;100.00;98659.88;5045151;28;20089;-47
2023/01/25 06:21:29;;;;;;;18.80;9.55;;;2.00;99.90;;;1.03;100.00;98658.09;5045179;28;20032;-51
2023/01/25 06:23:55;;;;;;;19.80;10.88;;;2.00;99.90;;;1.02;100.00;98661.53;5042485;28;20048;-48
2023/01/25 06:26:20;;;;;;;19.10;10.65;;;2.00;99.90;;;1.02;100.00;98660.66;5046033;28;20028;-49
2023/01/25 06:28:46;;;;;;;16.38;10.65;;;2.00;99.90;;;1.02;100.00;98665.84;5037744;28;20672;-50
2023/01/25 06:31:15;;;;;;;16.08;9.63;;;2.00;99.90;;;1.01;100.00;98654.59;5041459;28;20222;-46
2023/01/25 06:33:43;;;;;;;18.95;10.73;;;2.00;99.90;;;1.02;100.00;98658.06;5045188;28;20122;-47
2023/01/25 06:36:14;;;;;;;18.63;11.15;;;2.00;99.90;;;1.00;100.00;98654.56;5044881;28;20486;-48
2023/01/25 06:38:41;;;;;;;18.15;10.73;;;2.00;99.90;;;1.05;100.00;98660.72;5042359;28;20056;-47
2023/01/25 06:41:10;;;;;;;19.23;10.45;;;2.00;99.90;;;1.01;100.00;98653.72;5042344;28;20496;-50
2023/01/25 06:43:36;;;;;;;15.40;9.60;;;2.00;99.90;;;1.05;100.00;98646.00;5039307;28;20037;-48
2023/01/25 06:46:05;;;;;;;16.40;9.75;;;2.00;99.90;;;1.07;100.00;98653.84;5040309;28;20083;-46
2023/01/25 06:48:31;;;;;;;19.63;11.27;;;2.00;99.90;;;1.14;100.00;98655.72;5039534;28;20041;-49
2023/01/25 06:51:05;;;;;;;21.25;11.18;;;2.10;99.90;;;1.07;100.00;98652.09;5029614;28;20033;-48
2023/01/25 06:53:35;;;;;;;16.05;10.13;;;2.10;99.90;;;1.15;100.00;98641.91;5038076;28;20029;-49
2023/01/25 06:56:12;;;;;;;16.52;10.23;;;2.10;99.90;;;1.12;100.00;98641.81;5042129;28;20082;-50
2023/01/25 06:58:39;;;;;;;23.00;12.75;;;2.10;99.90;;;1.12;100.00;98647.88;5038402;28;20051;-48
2023/01/25 07:01:14;;;;;;;19.92;11.18;;;2.10;99.90;;;1.07;100.00;98627.84;5039636;28;20035;-48
2023/01/25 07:03:40;;;;;;;16.25;9.48;;;2.10;99.90;;;1.11;100.00;98640.97;5039129;28;20044;-49
2023/01/25 07:06:08;;;;;;;16.35;9.43;;;2.10;99.90;;;1.10;100.00;98635.72;5039133;28;20040;-49
2023/01/25 07:08:34;;;;;;;16.38;9.55;;;2.10;99.90;;;1.09;100.00;98626.16;5035544;28;20040;-50
2023/01/25 07:11:04;;;;;;;18.10;11.13;;;2.10;99.90;;;1.11;100.00;98633.16;5043687;28;20040;-46
2023/01/25 07:13:32;;;;;;;16.58;9.98;;;2.10;99.90;;;1.14;100.00;98632.34;5036066;28;20028;-47
2023/01/25 07:16:07;;;;;;;19.23;10.93;;;2.10;99.90;;;1.13;100.00;98626.28;5044980;28;20034;-50
2023/01/25 07:18:37;;;;;;;17.95;10.13;;;2.10;99.90;;;1.11;100.00;98611.47;5039317;28;20129;-51
2023/01/25 07:21:15;;;;;;;18.23;10.43;;;2.10;99.90;;;1.22;100.00;98628.19;5043628;28;20043;-46
2023/01/25 07:23:41;;;;;;;17.55;10.55;;;2.20;99.90;;;1.21;100.00;98626.41;5034747;28;20098;-49
2023/01/25 07:26:22;;;;;;;17.70;10.45;;;2.10;99.90;;;1.23;100.00;98629.91;5042672;28;20033;-47
2023/01/25 07:28:48;;;;;;;19.02;10.35;;;2.20;99.90;;;1.26;100.00;98632.59;5037585;28;20036;-48
2023/01/25 07:31:16;;;;;;;16.00;10.38;;;2.20;99.90;;;1.24;100.00;98629.09;5039500;28;20025;-49
2023/01/25 07:33:42;;;;;;;16.00;9.20;;;2.20;99.90;;;1.31;100.00;98623.16;5031903;28;20065;-46
2023/01/25 07:36:10;;;;;;;18.27;10.55;;;2.20;99.90;;;1.31;100.00;98630.97;5052271;28;20044;-49
2023/01/25 07:38:36;;;;;;;17.63;9.60;;;2.20;99.90;;;1.26;100.00;98624.78;5037301;28;20032;-49
2023/01/25 07:41:03;;;;;;;16.40;9.85;;;2.20;99.90;;;1.25;100.00;98619.56;5043494;28;20029;-52
2023/01/25 07:43:29;;;;;;;16.33;9.85;;;2.20;99.90;;;1.29;100.00;98616.16;5042346;28;20037;-46
2023/01/25 07:46:04;;;;;;;16.90;10.38;;;2.20;99.90;;;1.30;100.00;98618.78;5034848;28;20354;-50
2023/01/25 07:48:31;;;;;;;17.45;9.93;;;2.30;99.90;;;1.29;100.00;98614.47;5035795;28;20466;-50
2023/01/25 07:51:22;;;;;;;17.60;9.63;;;2.20;99.90;;;1.32;100.00;98614.50;5037930;28;20044;-47
2023/01/25 07:53:52;;;;;;;16.73;9.50;;;2.30;99.90;;;1.34;100.00;98611.94;5040251;28;20028;-47
2023/01/25 07:56:19;;;;;;;17.73;9.98;;;2.20;99.90;;;1.38;100.00;98610.25;5045877;28;20032;-46
2023/01/25 07:58:45;;;;;;;18.45;9.80;;;2.30;99.90;;;1.37;100.00;98617.19;5041107;28;20419;-47
2023/01/25 08:01:15;;;;;;;15.52;9.23;;;2.30;99.90;;;1.38;100.00;98623.25;5040908;28;21206;-46
2023/01/25 08:03:42;;;;;;;18.17;10.05;;;2.30;99.90;;;1.39;100.00;98620.69;5036066;28;20105;-51
2023/01/25 08:06:09;;;;;;;15.93;9.43;;;2.30;99.90;;;1.41;100.00;98623.31;5041730;28;20075;-47
2023/01/25 08:08:41;;;;;;;17.77;9.90;;;2.40;99.90;;;1.39;100.00;98623.28;5040237;28;20041;-51
2023/01/25 08:11:21;;;;;;;16.63;10.07;;;2.30;99.90;;;1.35;100.00;98613.69;5045951;28;20037;-47
2023/01/25 08:13:48;;;;;;;15.57;9.98;;;2.40;99.90;;;1.48;100.00;98622.59;5035894;28;20032;-51
2023/01/25 08:16:21;;;;;;;15.73;9.05;;;2.40;99.90;;;1.50;100.00;98628.69;5029506;28;20047;-51
2023/01/25 08:18:53;;;;;;;17.25;9.73;;;2.40;99.90;;;1.50;100.00;98624.38;5036108;28;20129;-51
2023/01/25 08:21:19;;;;;;;16.25;9.52;;;2.40;99.90;;;1.51;100.00;98622.66;5043808;28;20250;-50
2023/01/25 08:23:45;;;;;;;15.43;9.27;;;2.40;99.90;;;1.50;100.00;98615.69;5039627;28;20051;-50
2023/01/25 08:26:14;;;;;;;16.10;9.32;;;2.40;99.90;;;1.51;100.00;98617.47;5041811;28;20515;-50
2023/01/25 08:28:40;;;;;;;17.27;10.13;;;2.50;99.90;;;1.61;100.00;98621.97;5034976;28;20091;-50
2023/01/25 08:31:12;;;;;;;17.33;9.90;;;2.50;99.90;;;1.53;100.00;98624.44;5041585;28;20042;-49
2023/01/25 08:33:39;;;;;;;16.55;9.60;;;2.50;99.90;;;1.60;100.00;98634.94;5040334;28;20036;-48
2023/01/25 08:36:07;;;;;;;14.85;9.45;;;2.50;99.90;;;1.62;100.00;98628.06;5043638;28;20044;-47
2023/01/25 08:38:33;;;;;;;14.82;9.32;;;2.50;99.90;;;1.62;100.00;98617.66;5043581;28;20029;-51
2023/01/25 08:41:13;;;;;;;16.67;9.68;;;2.60;99.90;;;1.66;100.00;98628.13;5034207;28;20086;-48
2023/01/25 08:43:39;;;;;;;15.20;9.30;;;2.60;99.90;;;1.74;100.00;98619.59;5039952;28;20067;-50
2023/01/25 08:46:05;;;;;;;13.88;8.55;;;2.60;99.90;;;1.64;100.00;98595.16;5042231;28;20127;-51
2023/01/25 08:48:31;;;;;;;16.25;8.98;;;2.60;99.90;;;1.74;100.00;98614.38;5041472;28;20028;-49
2023/01/25 08:50:57;;;;;;;14.50;8.82;;;2.60;99.90;;;1.67;100.00;98613.38;5040579;28;20048;-50
2023/01/25 08:53:23;;;;;;;17.92;8.25;;;2.60;99.90;;;1.64;100.00;98610.75;5031094;28;20267;-50
2023/01/25 08:55:49;;;;;;;15.15;9.13;;;2.60;99.90;;;1.59;100.00;98609.78;5042121;28;21600;-50
2023/01/25 08:58:18;;;;;;;13.88;7.72;;;2.50;99.90;;;1.57;100.00;98596.75;5038785;28;20438;-50
2023/01/25 09:00:45;;;;;;;15.15;8.50;;;2.50;99.90;;;1.66;100.00;98591.72;5044407;28;20032;-52
2023/01/25 09:03:11;;;;;;;14.40;8.55;;;2.50;99.90;;;1.60;100.00;98589.03;5039740;28;20037;-48
2023/01/25 09:05:38;;;;;;;15.55;8.73;;;2.60;99.90;;;1.58;100.00;98593.31;5038749;28;20032;-49
2023/01/25 09:08:07;;;;;;;13.20;8.50;;;2.50;99.90;;;1.63;100.00;98599.47;5039889;28;20029;-47
2023/01/25 09:10:33;;;;;;;12.40;7.85;;;2.50;99.90;;;1.62;100.00;98589.91;5039280;28;20047;-51
2023/01/25 09:12:59;;;;;;;15.50;9.02;;;2.60;99.90;;;1.63;100.00;98596.00;5045219;28;20472;-46
2023/01/25 09:15:25;;;;;;;15.30;8.73;;;2.60;99.90;;;1.57;100.00;98593.28;5043841;28;20032;-47
2023/01/25 09:17:56;;;;;;;16.45;8.77;;;2.50;99.90;;;1.59;100.00;98592.47;5039051;28;20431;-48
2023/01/25 09:20:22;;;;;;;15.55;9.55;;;2.50;99.90;;;1.60;100.00;98591.63;5049123;28;20039;-50
2023/01/25 09:22:48;;;;;;;14.13;8.27;;;2.50;99.90;;;1.60;100.00;98595.94;5044609;28;20573;-50
2023/01/25 09:25:14;;;;;;;15.48;8.40;;;2.50;99.90;;;1.65;100.00;98597.78;5042144;28;20040;-50
2023/01/25 09:27:40;;;;;;;15.40;8.45;;;2.60;99.90;;;1.62;100.00;98584.72;5048034;28;20628;-49
2023/01/25 09:30:09;;;;;;;16.30;9.73;;;2.60;99.90;;;1.71;100.00;98586.63;5040277;28;21247;-48
2023/01/25 09:32:36;;;;;;;14.02;8.77;;;2.70;99.90;;;1.71;100.00;98592.69;5039112;28;20523;-48
2023/01/25 09:35:03;;;;;;;17.83;9.77;;;2.70;99.90;;;1.79;100.00;98587.59;5034496;28;20279;-48
2023/01/25 09:37:28;;;;;;;14.48;9.05;;;2.70;99.90;;;1.63;100.00;98581.25;5042621;28;20514;-47
2023/01/25 09:39:54;;;;;;;15.30;9.32;;;2.60;99.90;;;1.63;100.00;98589.06;5045979;28;20036;-48
2023/01/25 09:43:17;;;;;;;15.10;8.65;;;2.60;99.90;;;1.53;100.00;98577.63;5034479;28;20253;-49
2023/01/25 09:45:43;;;;;;;15.18;9.07;;;2.60;99.90;;;1.51;100.00;98574.13;5036996;28;20535;-49
2023/01/25 09:48:32;;;;;;;13.77;8.93;;;2.60;99.90;;;1.63;100.00;98581.25;5042850;28;20043;-52
2023/01/25 09:51:05;;;;;;;13.95;8.70;;;2.60;99.90;;;1.64;100.00;98584.75;5033525;28;20066;-49
2023/01/25 09:53:38;;;;;;;15.80;9.63;;;2.60;99.90;;;1.64;100.00;98587.34;5046919;28;20024;-51
2023/01/25 09:56:11;;;;;;;15.02;8.75;;;2.60;99.90;;;1.70;100.00;98583.09;5041426;23;20060;-37
2023/01/25 09:58:45;;;;;;;17.58;9.52;;;2.60;99.90;;;1.69;100.00;98578.78;5022329;28;20464;-38
2023/01/25 10:01:45;;;;;;;13.68;8.15;;;2.70;99.90;;;1.79;100.00;98585.00;5029797;28;20040;-38
2023/01/25 10:04:22;;;;;;;14.55;8.95;;;2.70;99.90;;;1.79;100.00;98582.41;5017717;28;20394;-38
2023/01/25 10:07:10;;;;;;;17.33;10.40;;;2.70;99.90;;;1.81;100.00;98582.44;5017164;28;20084;-37
2023/01/25 10:09:59;;;;;;;14.82;8.90;;;2.80;99.90;;;1.89;100.00;98573.91;5008222;28;20044;-39
2023/01/25 10:12:27;;;;;;;17.10;8.75;;;2.80;99.90;;;1.87;100.00;98578.22;5016472;28;21674;-39
2023/01/25 10:14:53;;;;;;;18.35;9.35;;;2.80;99.90;;;1.88;100.00;98574.78;5006774;28;20055;-38
2023/01/25 10:17:39;;;;;;;18.15;10.32;;;2.80;99.90;;;2.00;100.00;98568.00;5004860;28;20793;-38
2023/01/25 10:20:57;;;;;;;13.93;8.73;;;2.90;99.90;;;1.95;100.00;98570.53;5013760;28;20037;-38
2023/01/25 10:23:53;;;;;;;21.38;9.68;;;2.90;99.90;;;1.95;100.00;98573.13;5015946;28;20033;-38
2023/01/25 10:26:28;;;;;;;16.70;9.85;;;2.90;99.90;;;1.98;100.00;98567.13;5012425;28;20729;-38
2023/01/25 10:29:18;;;;;;;16.90;10.07;;;2.90;99.90;;;2.02;100.00;98564.56;5013413;28;20033;-38